createdAt,value
2023-01-04T00:01:48.997Z,6.32
2023-01-04T00:07:20.734Z,6.24
2023-01-04T00:12:52.458Z,6.34
2023-01-04T00:18:24.171Z,6.42
2023-01-04T00:23:56.026Z,6.39
2023-01-04T00:29:27.675Z,6.22
2023-01-04T00:34:59.311Z,6.31
2023-01-04T00:40:31.003Z,6.24
2023-01-04T00:46:02.939Z,6.2
2023-01-04T00:51:34.885Z,6.2
2023-01-04T00:57:06.199Z,6.03
2023-01-04T01:02:42.728Z,6.08
2023-01-04T01:08:14.163Z,6.17
2023-01-04T01:13:45.892Z,6.04
2023-01-04T01:19:17.494Z,6.0
2023-01-04T01:24:49.188Z,6.04
2023-01-04T01:30:20.941Z,5.97
2023-01-04T01:35:53.400Z,5.95
2023-01-04T01:41:24.441Z,5.65
2023-01-04T01:46:56.375Z,5.52
2023-01-04T01:52:27.957Z,5.55
2023-01-04T01:57:59.709Z,5.4
2023-01-04T02:03:35.691Z,5.41
2023-01-04T02:09:07.340Z,5.32
2023-01-04T02:14:39.084Z,5.39
2023-01-04T02:20:10.781Z,5.36
2023-01-04T02:25:42.596Z,5.3
2023-01-04T02:31:14.549Z,5.37
2023-01-04T02:36:46.600Z,5.32
2023-01-04T02:42:17.969Z,5.32
2023-01-04T02:47:49.459Z,5.29
2023-01-04T02:53:21.107Z,5.25
2023-01-04T02:58:53.223Z,5.23
2023-01-04T03:04:29.271Z,5.24
2023-01-04T03:10:00.686Z,5.21
2023-01-04T03:15:32.571Z,5.28
2023-01-04T03:21:04.152Z,5.31
2023-01-04T03:26:36.116Z,5.33
2023-01-04T03:32:07.570Z,5.4
2023-01-04T03:37:39.297Z,5.52
2023-01-04T03:43:10.983Z,5.51
2023-01-04T03:48:42.827Z,5.49
2023-01-04T03:54:14.440Z,5.42
2023-01-04T03:59:46.134Z,5.46
2023-01-04T04:05:24.523Z,5.41
2023-01-04T04:10:56.010Z,5.39
2023-01-04T04:16:27.809Z,5.64
2023-01-04T04:21:59.739Z,5.64
2023-01-04T04:27:31.168Z,5.5
2023-01-04T04:33:03.024Z,5.68
2023-01-04T04:38:34.588Z,5.7
2023-01-04T04:44:06.545Z,5.85
2023-01-04T04:49:39.112Z,6.02
2023-01-04T04:55:09.837Z,6.27
2023-01-04T05:00:41.812Z,6.27
2023-01-04T05:06:17.861Z,6.43
2023-01-04T05:11:49.393Z,6.56
2023-01-04T05:17:21.092Z,6.65
2023-01-04T05:22:52.934Z,6.66
2023-01-04T05:28:25.461Z,6.85
2023-01-04T05:33:56.282Z,6.94
2023-01-04T05:39:28.006Z,7.06
2023-01-04T05:44:59.701Z,7.07
2023-01-04T05:50:31.421Z,7.18
2023-01-04T05:56:03.345Z,7.27
2023-01-04T06:01:35.120Z,7.43
2023-01-04T06:07:13.161Z,7.41
2023-01-04T06:12:44.738Z,7.58
2023-01-04T06:18:16.798Z,7.62
2023-01-04T06:23:48.190Z,7.65
2023-01-04T06:29:19.942Z,7.6
2023-01-04T06:34:51.841Z,7.69
2023-01-04T06:40:23.561Z,7.68
2023-01-04T06:45:55.148Z,7.77
2023-01-04T06:51:26.735Z,7.58
2023-01-04T06:56:58.564Z,7.62
2023-01-04T07:02:30.801Z,7.66
2023-01-04T07:08:08.330Z,7.65
2023-01-04T07:13:38.065Z,7.72
2023-01-04T07:19:09.776Z,7.74
2023-01-04T07:24:41.677Z,7.85
2023-01-04T07:30:13.244Z,7.88
2023-01-04T07:35:45.184Z,7.63
2023-01-04T07:41:16.827Z,7.79
2023-01-04T07:46:48.728Z,7.74
2023-01-04T07:52:20.482Z,7.49
2023-01-04T07:57:51.893Z,7.55
2023-01-04T08:03:23.841Z,7.67
2023-01-04T08:08:59.997Z,7.56
2023-01-04T08:14:31.878Z,7.65
2023-01-04T08:20:03.178Z,7.75
2023-01-04T08:25:35.186Z,7.7
2023-01-04T08:31:06.762Z,7.87
2023-01-04T08:36:38.382Z,7.77
2023-01-04T08:42:20.719Z,7.96
2023-01-04T08:47:41.742Z,7.96
2023-01-04T08:53:13.858Z,7.92
2023-01-04T08:58:45.197Z,7.96
2023-01-04T09:04:17.134Z,8.07
2023-01-04T09:09:53.318Z,8.05
2023-01-04T09:15:24.755Z,8.03
2023-01-04T09:20:56.636Z,8.16
2023-01-04T09:26:28.451Z,8.14
2023-01-04T09:31:59.954Z,8.17
2023-01-04T09:37:31.665Z,8.31
2023-01-04T09:43:19.803Z,8.23
2023-01-04T09:48:35.151Z,8.22
2023-01-04T09:54:07.154Z,8.4
2023-01-04T09:59:38.777Z,8.28
2023-01-04T10:05:11.004Z,8.38
2023-01-04T10:10:48.395Z,8.5
2023-01-04T10:16:25.413Z,8.67
2023-01-04T10:21:52.153Z,8.68
2023-01-04T10:27:23.556Z,8.72
2023-01-04T10:32:55.449Z,8.68
2023-01-04T10:38:27.074Z,8.79
2023-01-04T10:44:10.162Z,8.92
2023-01-04T10:49:30.518Z,9.03
2023-01-04T10:55:02.715Z,9.27
2023-01-04T11:00:33.864Z,9.32
2023-01-04T11:06:05.614Z,9.32
2023-01-04T11:11:41.763Z,9.56
2023-01-04T11:17:13.443Z,9.61
2023-01-04T11:22:45.302Z,9.68
2023-01-04T11:28:16.997Z,9.88
2023-01-04T11:33:48.969Z,9.92
2023-01-04T11:39:20.702Z,9.97
2023-01-04T11:44:52.448Z,9.89
2023-01-04T11:50:23.942Z,9.93
2023-01-04T11:55:55.664Z,9.95
2023-01-04T12:01:27.457Z,10.03
2023-01-04T12:06:59.299Z,9.83
2023-01-04T12:12:35.592Z,10.05
2023-01-04T12:18:07.079Z,10.2
2023-01-04T12:23:38.804Z,10.15
2023-01-04T12:29:10.695Z,10.19
2023-01-04T12:34:42.183Z,10.16
2023-01-04T12:40:14.000Z,10.21
2023-01-04T12:45:45.660Z,10.14
2023-01-04T12:51:30.902Z,10.33
2023-01-04T12:56:49.065Z,10.28
2023-01-04T13:02:21.148Z,10.3
2023-01-04T13:07:52.493Z,10.38
2023-01-04T13:13:30.604Z,10.45
2023-01-04T13:19:02.328Z,10.53
2023-01-04T13:24:35.220Z,10.76
2023-01-04T13:30:06.134Z,10.68
2023-01-04T13:35:37.797Z,10.9
2023-01-04T13:41:09.271Z,10.93
2023-01-04T13:46:41.257Z,10.95
2023-01-04T13:52:44.665Z,10.92
2023-01-04T13:57:44.451Z,10.98
2023-01-04T14:03:16.402Z,11.0
2023-01-04T14:08:47.918Z,11.04
2023-01-04T14:14:23.969Z,11.16
2023-01-04T14:19:55.974Z,11.17
2023-01-04T14:25:27.584Z,11.2
2023-01-04T14:30:59.207Z,11.16
2023-01-04T14:36:30.997Z,11.1
2023-01-04T14:42:02.554Z,11.09
2023-01-04T14:47:34.335Z,11.07
2023-01-04T14:53:06.238Z,11.25
2023-01-04T14:58:37.884Z,11.09
2023-01-04T15:04:09.515Z,11.05
2023-01-04T15:09:41.237Z,10.96
2023-01-04T15:15:17.343Z,11.04
2023-01-04T15:20:49.208Z,10.95
2023-01-04T15:26:20.757Z,10.99
2023-01-04T15:31:52.764Z,11.02
2023-01-04T15:37:24.299Z,10.96
2023-01-04T15:42:56.120Z,11.1
2023-01-04T15:48:27.803Z,11.05
2023-01-04T15:53:59.364Z,11.16
2023-01-04T15:59:31.045Z,11.04
2023-01-04T16:05:02.777Z,11.2
2023-01-04T16:10:34.824Z,11.13
2023-01-04T16:16:13.008Z,11.11
2023-01-04T16:21:44.559Z,11.15
2023-01-04T16:27:16.073Z,11.2
2023-01-04T16:32:47.790Z,11.25
2023-01-04T16:38:19.879Z,11.17
2023-01-04T16:43:51.427Z,11.16
2023-01-04T16:49:22.964Z,11.19
2023-01-04T16:54:54.698Z,11.1
2023-01-04T17:00:26.649Z,11.08
2023-01-04T17:05:58.322Z,11.15
2023-01-04T17:12:18.944Z,11.25
2023-01-04T17:12:47.404Z,11.25
2023-01-04T17:17:08.206Z,11.27
2023-01-04T17:22:39.750Z,11.16
2023-01-04T17:28:11.560Z,11.22
2023-01-04T17:33:43.117Z,11.19
2023-01-04T17:39:14.879Z,11.13
2023-01-04T17:44:47.480Z,11.11
2023-01-04T17:50:18.655Z,11.18
2023-01-04T17:55:50.267Z,11.15
2023-01-04T18:01:21.925Z,11.06
2023-01-04T18:06:53.679Z,11.05
2023-01-04T18:12:25.172Z,11.04
2023-01-04T18:18:01.835Z,11.06
2023-01-04T18:23:33.026Z,10.95
2023-01-04T18:29:04.697Z,10.93
2023-01-04T18:34:36.416Z,10.91
2023-01-04T18:40:08.224Z,10.83
2023-01-04T18:45:40.582Z,10.69
2023-01-04T18:51:11.610Z,10.79
2023-01-04T18:56:43.401Z,10.83
2023-01-04T19:02:15.377Z,10.85
2023-01-04T19:07:46.796Z,10.74
2023-01-04T19:13:18.564Z,10.64
2023-01-04T19:18:54.704Z,10.76
2023-01-04T19:24:26.411Z,10.67
2023-01-04T19:29:58.898Z,10.74
2023-01-04T19:35:29.991Z,10.82
2023-01-04T19:41:01.825Z,10.76
2023-01-04T19:46:33.508Z,10.68
2023-01-04T19:52:05.027Z,10.85
2023-01-04T19:57:36.913Z,10.61
2023-01-04T20:03:09.155Z,10.69
2023-01-04T20:08:40.192Z,10.7
2023-01-04T20:14:11.893Z,10.49
2023-01-04T20:19:49.999Z,10.53
2023-01-04T20:25:21.764Z,10.56
2023-01-04T20:30:53.506Z,10.61
2023-01-04T20:36:25.163Z,10.54
2023-01-04T20:41:56.934Z,10.58
2023-01-04T20:47:28.660Z,10.64
2023-01-04T20:53:00.694Z,10.66
2023-01-04T20:58:32.142Z,10.66
2023-01-04T21:04:03.847Z,10.7
2023-01-04T21:09:35.598Z,10.73
2023-01-04T21:15:07.639Z,10.89
2023-01-04T21:20:45.879Z,10.76
2023-01-04T21:26:17.108Z,10.79
2023-01-04T21:31:48.999Z,10.78
2023-01-04T21:37:20.694Z,10.76
2023-01-04T21:42:52.461Z,11.0
2023-01-04T21:48:24.193Z,10.86
2023-01-04T21:53:55.991Z,10.88
2023-01-04T21:59:27.439Z,10.98
2023-01-04T22:04:59.796Z,11.03
2023-01-04T22:10:30.913Z,10.96
2023-01-04T22:16:03.033Z,10.97
2023-01-04T22:21:38.860Z,10.98
2023-01-04T22:27:11.537Z,10.99
2023-01-04T22:32:42.357Z,11.01
2023-01-04T22:38:14.086Z,11.16
2023-01-04T22:43:45.811Z,11.24
2023-01-04T22:49:17.536Z,11.34
2023-01-04T22:54:49.103Z,11.16
2023-01-04T23:00:20.840Z,11.3
2023-01-04T23:05:53.339Z,11.34
2023-01-04T23:11:24.670Z,11.29
2023-01-04T23:16:56.016Z,11.25
2023-01-04T23:22:32.367Z,11.31
2023-01-04T23:28:04.090Z,11.2
2023-01-04T23:33:36.606Z,11.25
2023-01-04T23:39:07.257Z,11.13
2023-01-04T23:44:38.967Z,11.09
2023-01-04T23:50:11.178Z,11.14
2023-01-04T23:55:42.448Z,11.21
